Time;durP1;ratioP1;P1;durP2;ratioP2;P2;SDS_P1;SDS_P2;PMS_P1;PMS_P2;Temp;Humidity;BMP_temperature;BMP_pressure;BME280_temperature;BME280_humidity;BME280_pressure;Samples;Min_cycle;Max_cycle;Signal;HPM_P1;HPM_P2
2021/12/12 00:01:03;;;;;;;0.50;0.50;;;;;;;;;;5061000;28;20684;-66
2021/12/12 00:03:41;;;;;;;0.50;0.50;;;;;;;;;;5061279;28;20197;-65
2021/12/12 00:06:12;;;;;;;0.50;0.50;;;;;;;;;;5062535;28;20555;-65
2021/12/12 00:08:40;;;;;;;0.40;0.40;;;;;;;;;;5060880;28;20177;-63
2021/12/12 00:11:08;;;;;;;0.50;0.50;;;;;;;;;;5059798;28;20547;-66
2021/12/12 00:13:38;;;;;;;0.50;0.50;;;;;;;;;;5059960;28;20245;-64
2021/12/12 00:16:04;;;;;;;0.50;0.50;;;;;;;;;;5059944;28;20556;-63
2021/12/12 00:18:30;;;;;;;0.50;0.50;;;;;;;;;;5069769;28;20176;-64
2021/12/12 00:20:56;;;;;;;0.50;0.50;;;;;;;;;;5060799;28;20225;-65
2021/12/12 00:23:22;;;;;;;0.50;0.50;;;;;;;;;;5061590;28;20440;-61
2021/12/12 00:25:51;;;;;;;0.50;0.50;;;;;;;;;;5060622;28;20180;-64
2021/12/12 00:28:19;;;;;;;0.40;0.40;;;;;;;;;;5061502;28;20178;-66
2021/12/12 00:30:46;;;;;;;0.50;0.50;;;;;;;;;;5059656;28;20188;-64
2021/12/12 00:33:13;;;;;;;0.50;0.50;;;;;;;;;;5060232;28;20224;-65
2021/12/12 00:35:39;;;;;;;0.40;0.40;;;;;;;;;;5060992;28;20178;-64
2021/12/12 00:38:08;;;;;;;0.50;0.50;;;;;;;;;;5059654;28;20210;-64
2021/12/12 00:40:36;;;;;;;0.50;0.50;;;;;;;;;;5064219;28;20261;-64
2021/12/12 00:43:05;;;;;;;0.50;0.50;;;;;;;;;;5065918;28;20280;-66
2021/12/12 00:45:31;;;;;;;0.50;0.50;;;;;;;;;;5068630;28;20181;-64
2021/12/12 00:47:58;;;;;;;0.40;0.40;;;;;;;;;;5063679;28;20237;-64
2021/12/12 00:50:27;;;;;;;0.50;0.50;;;;;;;;;;5062332;28;20172;-63
2021/12/12 00:52:53;;;;;;;0.50;0.50;;;;;;;;;;5062679;28;20226;-65
2021/12/12 00:55:20;;;;;;;0.40;0.40;;;;;;;;;;5064118;28;20594;-63
2021/12/12 00:57:51;;;;;;;0.60;0.60;;;;;;;;;;5065346;28;20221;-64
2021/12/12 01:00:19;;;;;;;0.60;0.60;;;;;;;;;;5064021;28;20169;-65
2021/12/12 01:02:44;;;;;;;0.50;0.50;;;;;;;;;;5063264;28;20208;-62
2021/12/12 01:05:12;;;;;;;0.50;0.50;;;;;;;;;;5065173;28;20170;-65
2021/12/12 01:07:39;;;;;;;0.50;0.50;;;;;;;;;;5064313;28;21078;-64
2021/12/12 01:10:09;;;;;;;0.50;0.50;;;;;;;;;;5062918;28;20178;-64
2021/12/12 01:12:36;;;;;;;0.50;0.50;;;;;;;;;;5062982;28;20183;-65
2021/12/12 01:15:22;;;;;;;0.50;0.50;;;;;;;;;;5064698;28;20182;-63
2021/12/12 01:17:50;;;;;;;0.50;0.50;;;;;;;;;;5064724;28;20208;-64
2021/12/12 01:20:23;;;;;;;0.50;0.50;;;;;;;;;;5064782;28;20260;-64
2021/12/12 01:22:51;;;;;;;0.50;0.50;;;;;;;;;;5064939;28;20282;-64
2021/12/12 01:25:20;;;;;;;0.50;0.50;;;;;;;;;;5063877;28;20569;-65
2021/12/12 01:27:47;;;;;;;0.50;0.50;;;;;;;;;;5063013;28;20544;-64
2021/12/12 01:30:13;;;;;;;0.50;0.50;;;;;;;;;;5064230;28;20204;-64
2021/12/12 01:32:40;;;;;;;0.40;0.40;;;;;;;;;;5064005;28;20194;-66
2021/12/12 01:35:14;;;;;;;0.50;0.50;;;;;;;;;;5062537;28;20674;-66
2021/12/12 01:37:43;;;;;;;0.60;0.60;;;;;;;;;;5063218;28;20192;-65
2021/12/12 01:40:22;;;;;;;0.50;0.50;;;;;;;;;;5064598;28;20209;-65
2021/12/12 01:42:55;;;;;;;0.50;0.50;;;;;;;;;;5123832;22;20275;-62
2021/12/12 01:45:27;;;;;;;0.50;0.50;;;;;;;;;;5074661;28;20212;-62
2021/12/12 01:47:58;;;;;;;0.40;0.40;;;;;;;;;;5094040;28;20172;-62
2021/12/12 01:50:36;;;;;;;0.50;0.50;;;;;;;;;;5092672;28;20168;-63
2021/12/12 01:53:03;;;;;;;0.50;0.50;;;;;;;;;;5093873;28;20763;-63
2021/12/12 01:55:36;;;;;;;0.50;0.50;;;;;;;;;;5075872;28;20637;-63
2021/12/12 01:58:04;;;;;;;0.50;0.50;;;;;;;;;;5094258;28;20179;-63
2021/12/12 02:00:33;;;;;;;0.50;0.50;;;;;;;;;;5093384;28;20551;-63
2021/12/12 02:03:00;;;;;;;0.50;0.50;;;;;;;;;;5094248;28;20185;-63
2021/12/12 02:05:26;;;;;;;0.50;0.50;;;;;;;;;;5094137;28;20180;-63
2021/12/12 02:07:56;;;;;;;0.50;0.50;;;;;;;;;;5093466;28;20167;-63
2021/12/12 02:10:25;;;;;;;0.50;0.50;;;;;;;;;;5093240;28;20462;-63
2021/12/12 02:12:51;;;;;;;0.60;0.60;;;;;;;;;;5093394;28;20268;-63
2021/12/12 02:15:18;;;;;;;0.50;0.50;;;;;;;;;;5093383;28;20168;-63
2021/12/12 02:17:47;;;;;;;0.50;0.50;;;;;;;;;;5093501;28;20178;-63
2021/12/12 02:20:21;;;;;;;0.50;0.50;;;;;;;;;;5093126;28;20177;-63
2021/12/12 02:36:30;;;;;;;0.50;0.50;;;;;;;;;;5093085;28;20224;-63
2021/12/12 02:38:57;;;;;;;0.50;0.50;;;;;;;;;;5092908;28;20172;-63
2021/12/12 02:41:25;;;;;;;0.50;0.50;;;;;;;;;;5092426;28;20227;-63
2021/12/12 02:43:53;;;;;;;0.50;0.50;;;;;;;;;;5092917;28;20170;-63
2021/12/12 02:46:22;;;;;;;0.50;0.50;;;;;;;;;;5092774;28;20168;-63
2021/12/12 02:48:51;;;;;;;0.50;0.50;;;;;;;;;;5092726;28;20164;-62
2021/12/12 02:51:18;;;;;;;0.50;0.50;;;;;;;;;;5092286;28;20195;-63
2021/12/12 02:53:52;;;;;;;0.50;0.50;;;;;;;;;;5092635;28;20204;-63
2021/12/12 02:56:21;;;;;;;0.60;0.60;;;;;;;;;;5092717;28;20257;-63
2021/12/12 02:58:48;;;;;;;0.50;0.50;;;;;;;;;;5092566;28;20186;-63
2021/12/12 03:01:17;;;;;;;0.50;0.50;;;;;;;;;;5092281;28;20279;-63
2021/12/12 03:03:43;;;;;;;0.50;0.50;;;;;;;;;;5092491;28;20201;-63
2021/12/12 03:06:11;;;;;;;0.50;0.50;;;;;;;;;;5092437;28;20182;-63
2021/12/12 03:08:38;;;;;;;0.60;0.60;;;;;;;;;;5092468;28;20177;-63
2021/12/12 03:11:05;;;;;;;0.50;0.50;;;;;;;;;;5092178;28;20184;-63
2021/12/12 03:13:31;;;;;;;0.60;0.60;;;;;;;;;;5092351;28;20225;-63
2021/12/12 03:15:57;;;;;;;0.50;0.50;;;;;;;;;;5092387;28;20174;-63
2021/12/12 03:18:26;;;;;;;0.50;0.50;;;;;;;;;;5092141;28;20181;-63
2021/12/12 03:20:54;;;;;;;0.50;0.50;;;;;;;;;;5091805;28;20467;-63
2021/12/12 03:23:22;;;;;;;0.55;0.55;;;;;;;;;;5092216;28;20176;-63
2021/12/12 03:25:54;;;;;;;0.50;0.50;;;;;;;;;;5092140;28;20181;-63
2021/12/12 03:28:22;;;;;;;0.50;0.50;;;;;;;;;;5092460;28;20259;-63
2021/12/12 03:30:50;;;;;;;0.50;0.50;;;;;;;;;;5091845;28;20171;-63
2021/12/12 03:33:17;;;;;;;0.50;0.50;;;;;;;;;;5091895;28;20577;-63
2021/12/12 03:35:46;;;;;;;0.60;0.60;;;;;;;;;;5091996;28;20178;-63
2021/12/12 03:38:12;;;;;;;0.50;0.50;;;;;;;;;;5092076;28;20254;-63
2021/12/12 03:40:39;;;;;;;0.60;0.60;;;;;;;;;;5091724;28;20267;-63
2021/12/12 03:43:07;;;;;;;0.50;0.50;;;;;;;;;;5091870;28;20202;-63
2021/12/12 03:45:34;;;;;;;0.60;0.60;;;;;;;;;;5091801;28;20202;-63
2021/12/12 03:48:06;;;;;;;0.50;0.50;;;;;;;;;;5091857;28;20178;-63
2021/12/12 03:50:34;;;;;;;0.50;0.50;;;;;;;;;;5091709;28;20257;-63
2021/12/12 03:53:00;;;;;;;0.60;0.60;;;;;;;;;;5091752;28;20190;-63
2021/12/12 03:55:31;;;;;;;0.40;0.40;;;;;;;;;;5091783;28;20162;-62
2021/12/12 03:57:59;;;;;;;0.60;0.60;;;;;;;;;;5073656;28;20171;-63
2021/12/12 04:00:27;;;;;;;0.50;0.50;;;;;;;;;;5091579;28;20195;-63
2021/12/12 04:02:53;;;;;;;0.50;0.50;;;;;;;;;;5091605;28;20207;-63
2021/12/12 04:05:19;;;;;;;0.57;0.57;;;;;;;;;;5056977;28;20207;-63
2021/12/12 04:07:46;;;;;;;0.50;0.50;;;;;;;;;;5091900;28;20687;-64
2021/12/12 04:10:13;;;;;;;0.50;0.50;;;;;;;;;;5091419;28;20180;-64
2021/12/12 04:12:40;;;;;;;0.60;0.60;;;;;;;;;;5091505;28;20570;-64
2021/12/12 04:15:06;;;;;;;0.50;0.50;;;;;;;;;;5094354;28;20274;-63
2021/12/12 04:17:33;;;;;;;0.50;0.50;;;;;;;;;;5095788;28;20182;-63
2021/12/12 04:20:02;;;;;;;0.50;0.50;;;;;;;;;;5095732;28;20175;-63
2021/12/12 04:22:32;;;;;;;0.50;0.50;;;;;;;;;;5077265;28;20210;-64
2021/12/12 04:24:58;;;;;;;0.50;0.50;;;;;;;;;;5095782;28;20230;-64
2021/12/12 04:27:24;;;;;;;0.50;0.50;;;;;;;;;;5095585;28;20900;-64
2021/12/12 04:29:52;;;;;;;0.60;0.60;;;;;;;;;;5095520;28;20396;-64
2021/12/12 04:32:20;;;;;;;0.60;0.60;;;;;;;;;;5095261;28;20217;-63
2021/12/12 04:34:48;;;;;;;0.50;0.50;;;;;;;;;;5095454;28;20760;-63
2021/12/12 04:37:15;;;;;;;0.50;0.50;;;;;;;;;;5095373;28;20175;-63
2021/12/12 04:39:43;;;;;;;0.60;0.60;;;;;;;;;;5095276;28;20170;-63
2021/12/12 04:42:12;;;;;;;0.50;0.50;;;;;;;;;;5094933;28;20218;-63
2021/12/12 04:44:40;;;;;;;0.60;0.60;;;;;;;;;;5095270;28;20171;-63
2021/12/12 04:50:05;;;;;;;0.60;0.60;;;;;;;;;;5095497;28;20228;-63
2021/12/12 04:52:49;;;;;;;0.60;0.60;;;;;;;;;;5095019;28;20202;-63
2021/12/12 04:55:20;;;;;;;0.60;0.60;;;;;;;;;;5095189;28;20205;-63
2021/12/12 04:58:06;;;;;;;0.47;0.47;;;;;;;;;;5095039;28;20167;-63
2021/12/12 05:00:36;;;;;;;0.50;0.50;;;;;;;;;;5094333;28;20178;-63
2021/12/12 05:03:04;;;;;;;0.60;0.60;;;;;;;;;;5094857;28;20244;-63
2021/12/12 05:05:30;;;;;;;0.50;0.50;;;;;;;;;;5094814;28;20170;-63
2021/12/12 05:08:12;;;;;;;0.50;0.50;;;;;;;;;;5094843;28;20194;-63
2021/12/12 05:10:41;;;;;;;0.52;0.52;;;;;;;;;;5094484;28;20454;-63
2021/12/12 05:13:12;;;;;;;0.50;0.50;;;;;;;;;;5094524;28;20277;-63
2021/12/12 05:15:42;;;;;;;0.50;0.50;;;;;;;;;;5094588;28;20182;-63
2021/12/12 05:18:11;;;;;;;0.60;0.60;;;;;;;;;;5076492;28;20190;-63
2021/12/12 05:20:39;;;;;;;0.50;0.50;;;;;;;;;;5094270;28;20250;-63
2021/12/12 05:23:06;;;;;;;0.60;0.60;;;;;;;;;;5094439;28;20210;-64
2021/12/12 05:25:41;;;;;;;0.50;0.50;;;;;;;;;;5093129;28;20645;-63
2021/12/12 05:28:08;;;;;;;0.50;0.50;;;;;;;;;;5094457;28;20173;-63
2021/12/12 05:30:35;;;;;;;0.60;0.60;;;;;;;;;;5094135;28;20541;-63
2021/12/12 05:33:02;;;;;;;0.50;0.50;;;;;;;;;;5094285;28;20190;-63
2021/12/12 05:35:31;;;;;;;0.50;0.50;;;;;;;;;;5094319;28;20166;-63
2021/12/12 05:37:58;;;;;;;0.50;0.50;;;;;;;;;;5094177;28;20637;-63
2021/12/12 05:40:26;;;;;;;0.60;0.60;;;;;;;;;;5093938;28;20175;-63
2021/12/12 05:42:53;;;;;;;0.50;0.50;;;;;;;;;;5094006;28;20797;-63
2021/12/12 05:45:19;;;;;;;0.52;0.52;;;;;;;;;;5094012;28;20181;-63
2021/12/12 05:47:45;;;;;;;0.50;0.50;;;;;;;;;;5094105;28;20184;-63
2021/12/12 05:50:13;;;;;;;0.50;0.50;;;;;;;;;;5093832;28;20177;-63
2021/12/12 05:52:41;;;;;;;0.60;0.60;;;;;;;;;;5093799;28;20571;-63
2021/12/12 05:55:08;;;;;;;0.50;0.50;;;;;;;;;;5093849;28;20609;-63
2021/12/12 05:57:35;;;;;;;0.50;0.50;;;;;;;;;;5093851;28;20181;-63
2021/12/12 06:00:04;;;;;;;0.60;0.60;;;;;;;;;;5093783;28;20698;-63
2021/12/12 06:02:30;;;;;;;0.60;0.60;;;;;;;;;;5093587;28;20614;-63
2021/12/12 06:04:57;;;;;;;0.50;0.50;;;;;;;;;;5093678;28;20170;-63
2021/12/12 06:07:24;;;;;;;0.50;0.50;;;;;;;;;;5093614;28;20189;-63
2021/12/12 06:09:50;;;;;;;0.60;0.60;;;;;;;;;;5093602;28;20170;-63
2021/12/12 06:12:18;;;;;;;0.60;0.60;;;;;;;;;;5093352;28;20251;-63
2021/12/12 06:14:45;;;;;;;0.50;0.50;;;;;;;;;;5075290;28;20210;-63
2021/12/12 06:17:12;;;;;;;0.60;0.60;;;;;;;;;;5093614;28;20177;-63
2021/12/12 06:19:38;;;;;;;0.60;0.60;;;;;;;;;;5093525;28;20168;-63
2021/12/12 06:22:05;;;;;;;0.60;0.60;;;;;;;;;;5093143;28;20215;-63
2021/12/12 06:24:32;;;;;;;0.60;0.60;;;;;;;;;;5093344;28;20178;-63
2021/12/12 06:27:03;;;;;;;0.50;0.50;;;;;;;;;;5093312;28;20253;-64
2021/12/12 06:29:29;;;;;;;0.70;0.70;;;;;;;;;;5093657;28;20178;-63
2021/12/12 06:31:56;;;;;;;0.50;0.50;;;;;;;;;;5092950;28;20217;-64
2021/12/12 06:34:22;;;;;;;0.50;0.50;;;;;;;;;;5093404;28;20685;-63
2021/12/12 06:36:48;;;;;;;0.50;0.50;;;;;;;;;;5092759;28;20197;-63
2021/12/12 06:39:15;;;;;;;0.60;0.60;;;;;;;;;;5074908;28;20550;-63
2021/12/12 06:41:41;;;;;;;0.60;0.60;;;;;;;;;;5092735;28;20296;-64
2021/12/12 06:44:08;;;;;;;0.60;0.60;;;;;;;;;;5092900;28;20181;-63
2021/12/12 06:46:35;;;;;;;0.50;0.50;;;;;;;;;;5092913;28;20546;-63
2021/12/12 06:49:01;;;;;;;0.50;0.50;;;;;;;;;;5092710;28;20174;-63
2021/12/12 06:51:28;;;;;;;0.50;0.50;;;;;;;;;;5092268;28;20198;-63
2021/12/12 06:53:54;;;;;;;0.50;0.50;;;;;;;;;;5092673;28;20174;-63
2021/12/12 06:56:22;;;;;;;0.60;0.60;;;;;;;;;;5092655;28;20170;-63
2021/12/12 06:58:51;;;;;;;0.50;0.50;;;;;;;;;;5092833;28;20181;-63
2021/12/12 07:01:19;;;;;;;0.60;0.60;;;;;;;;;;5092346;28;20641;-63
2021/12/12 07:03:45;;;;;;;0.50;0.50;;;;;;;;;;5092588;28;20179;-63
2021/12/12 07:06:12;;;;;;;0.50;0.50;;;;;;;;;;5074431;28;20518;-63
2021/12/12 07:08:38;;;;;;;0.60;0.60;;;;;;;;;;5092530;28;20261;-63
2021/12/12 07:11:05;;;;;;;0.60;0.60;;;;;;;;;;5091740;28;20718;-63
2021/12/12 07:13:31;;;;;;;0.50;0.50;;;;;;;;;;5092685;28;20231;-63
2021/12/12 07:15:59;;;;;;;0.60;0.60;;;;;;;;;;5092415;28;20170;-63
2021/12/12 07:18:27;;;;;;;0.60;0.60;;;;;;;;;;5097526;28;20697;-63
2021/12/12 07:20:56;;;;;;;0.50;0.50;;;;;;;;;;5092048;28;20555;-63
2021/12/12 07:23:23;;;;;;;0.50;0.50;;;;;;;;;;5092288;28;20175;-63
2021/12/12 07:25:49;;;;;;;0.50;0.50;;;;;;;;;;5074469;28;20174;-63
2021/12/12 07:28:15;;;;;;;0.60;0.60;;;;;;;;;;5092587;28;20167;-63
2021/12/12 07:30:41;;;;;;;0.50;0.50;;;;;;;;;;5092003;28;20167;-63
2021/12/12 07:33:08;;;;;;;0.50;0.50;;;;;;;;;;5091933;28;20218;-63
2021/12/12 07:35:39;;;;;;;0.47;0.47;;;;;;;;;;5092124;28;20390;-63
2021/12/12 07:38:09;;;;;;;0.50;0.50;;;;;;;;;;5091972;28;20182;-63
2021/12/12 07:40:35;;;;;;;0.60;0.60;;;;;;;;;;5091724;28;20167;-63
2021/12/12 07:43:01;;;;;;;0.60;0.60;;;;;;;;;;5129276;22;20234;-65
2021/12/12 07:45:28;;;;;;;0.50;0.50;;;;;;;;;;5091760;28;20166;-65
2021/12/12 07:47:54;;;;;;;0.60;0.60;;;;;;;;;;5091576;28;20175;-65
2021/12/12 07:50:22;;;;;;;0.60;0.60;;;;;;;;;;5090952;28;20174;-65
2021/12/12 07:52:49;;;;;;;0.60;0.60;;;;;;;;;;5091770;28;20213;-65
2021/12/12 07:55:16;;;;;;;0.50;0.50;;;;;;;;;;5073686;28;20174;-65
2021/12/12 07:57:42;;;;;;;0.60;0.60;;;;;;;;;;5094277;28;20170;-65
2021/12/12 08:00:14;;;;;;;0.60;0.60;;;;;;;;;;5096458;28;20581;-65
2021/12/12 08:02:40;;;;;;;0.50;0.50;;;;;;;;;;5088720;28;20260;-65
2021/12/12 08:05:07;;;;;;;0.50;0.50;;;;;;;;;;5080171;28;20241;-65
2021/12/12 08:07:34;;;;;;;0.50;0.50;;;;;;;;;;5089686;28;20189;-66
2021/12/12 08:10:00;;;;;;;0.50;0.50;;;;;;;;;;5076956;28;20178;-65
2021/12/12 08:12:28;;;;;;;0.50;0.50;;;;;;;;;;5070414;28;20202;-65
2021/12/12 08:14:54;;;;;;;0.50;0.50;;;;;;;;;;5069086;28;20188;-65
2021/12/12 08:17:21;;;;;;;0.50;0.50;;;;;;;;;;5090973;28;20204;-65
2021/12/12 08:19:50;;;;;;;0.60;0.60;;;;;;;;;;5090488;28;20189;-65
2021/12/12 08:22:16;;;;;;;0.50;0.50;;;;;;;;;;5091231;28;20336;-65
2021/12/12 08:24:42;;;;;;;0.50;0.50;;;;;;;;;;5072166;28;20239;-65
2021/12/12 08:27:09;;;;;;;0.60;0.60;;;;;;;;;;5071288;28;20174;-65
2021/12/12 08:29:36;;;;;;;0.43;0.43;;;;;;;;;;5087235;28;20240;-65
2021/12/12 08:32:09;;;;;;;0.60;0.60;;;;;;;;;;5073608;28;20584;-65
2021/12/12 08:34:35;;;;;;;0.50;0.50;;;;;;;;;;5073234;28;20258;-64
2021/12/12 08:37:01;;;;;;;0.50;0.50;;;;;;;;;;5076600;28;20283;-64
2021/12/12 08:39:28;;;;;;;0.50;0.50;;;;;;;;;;5079333;28;20228;-65
2021/12/12 08:41:55;;;;;;;0.50;0.50;;;;;;;;;;5069545;28;20697;-65
2021/12/12 08:44:22;;;;;;;0.60;0.60;;;;;;;;;;5073331;28;20186;-65
2021/12/12 08:46:50;;;;;;;0.50;0.50;;;;;;;;;;5090449;28;20235;-65
2021/12/12 08:49:17;;;;;;;0.50;0.50;;;;;;;;;;5078507;28;20216;-65
2021/12/12 08:51:45;;;;;;;0.50;0.50;;;;;;;;;;5070870;28;20188;-68
2021/12/12 08:54:14;;;;;;;0.50;0.50;;;;;;;;;;5082520;28;20663;-65
2021/12/12 08:56:48;;;;;;;0.50;0.50;;;;;;;;;;5091188;28;20171;-64
2021/12/12 08:59:19;;;;;;;0.50;0.50;;;;;;;;;;5089451;28;20189;-65
2021/12/12 09:01:45;;;;;;;0.60;0.60;;;;;;;;;;5092612;28;20219;-65
2021/12/12 09:04:12;;;;;;;0.50;0.50;;;;;;;;;;5094700;28;20261;-65
2021/12/12 09:06:48;;;;;;;0.50;0.50;;;;;;;;;;5093148;28;20216;-65
2021/12/12 09:09:21;;;;;;;0.50;0.50;;;;;;;;;;5093316;28;20253;-65
2021/12/12 09:11:55;;;;;;;0.50;0.50;;;;;;;;;;5092956;28;20196;-64
2021/12/12 09:14:24;;;;;;;0.50;0.50;;;;;;;;;;5081111;28;20674;-65
2021/12/12 09:17:08;;;;;;;0.60;0.60;;;;;;;;;;5078442;28;20268;-65
2021/12/12 09:19:37;;;;;;;0.50;0.50;;;;;;;;;;5085232;28;20234;-65
2021/12/12 09:22:03;;;;;;;0.50;0.50;;;;;;;;;;5094300;28;20208;-65
2021/12/12 09:24:32;;;;;;;0.50;0.50;;;;;;;;;;5085962;28;20176;-65
2021/12/12 09:27:04;;;;;;;0.60;0.60;;;;;;;;;;5073188;28;20173;-64
2021/12/12 09:29:36;;;;;;;0.55;0.55;;;;;;;;;;5074227;28;20183;-63
2021/12/12 09:32:11;;;;;;;0.50;0.50;;;;;;;;;;5079810;28;20202;-65
2021/12/12 09:34:57;;;;;;;0.50;0.50;;;;;;;;;;5095015;28;20212;-65
2021/12/12 09:37:26;;;;;;;0.60;0.60;;;;;;;;;;5078765;28;20182;-63
2021/12/12 09:39:58;;;;;;;0.50;0.50;;;;;;;;;;5082355;28;20261;-65
2021/12/12 09:42:24;;;;;;;0.50;0.50;;;;;;;;;;5093519;28;20212;-65
2021/12/12 09:44:55;;;;;;;0.50;0.50;;;;;;;;;;5075477;28;20662;-65
2021/12/12 09:47:59;;;;;;;0.50;0.50;;;;;;;;;;5075280;28;20417;-65
2021/12/12 09:53:22;;;;;;;0.40;0.40;;;;;;;;;;5092380;28;20248;-65
2021/12/12 09:55:58;;;;;;;0.40;0.40;;;;;;;;;;5081165;28;20209;-65
2021/12/12 09:58:29;;;;;;;0.50;0.50;;;;;;;;;;5075973;28;20760;-65
2021/12/12 10:00:58;;;;;;;0.50;0.50;;;;;;;;;;5077946;28;20261;-65
2021/12/12 10:03:33;;;;;;;0.50;0.50;;;;;;;;;;5082564;28;20194;-66
2021/12/12 10:06:15;;;;;;;0.50;0.50;;;;;;;;;;5059571;28;20207;-65
2021/12/12 10:09:04;;;;;;;0.50;0.50;;;;;;;;;;5078331;28;20162;-65
2021/12/12 10:11:30;;;;;;;0.50;0.50;;;;;;;;;;5079687;28;20298;-65
2021/12/12 10:13:56;;;;;;;0.50;0.50;;;;;;;;;;5093833;28;20207;-64
2021/12/12 10:16:37;;;;;;;0.50;0.50;;;;;;;;;;5093619;28;20925;-64
2021/12/12 10:19:12;;;;;;;0.45;0.45;;;;;;;;;;5082717;28;20419;-65
2021/12/12 10:21:46;;;;;;;0.50;0.50;;;;;;;;;;5084271;28;20208;-64
2021/12/12 10:24:28;;;;;;;0.50;0.50;;;;;;;;;;5073292;28;20166;-64
2021/12/12 10:27:06;;;;;;;0.50;0.50;;;;;;;;;;5089656;28;20181;-64
2021/12/12 10:29:38;;;;;;;0.50;0.50;;;;;;;;;;5093430;28;20173;-65
2021/12/12 10:32:04;;;;;;;0.60;0.60;;;;;;;;;;5093060;28;20757;-64
2021/12/12 10:34:51;;;;;;;0.50;0.50;;;;;;;;;;5093148;28;20233;-65
2021/12/12 10:37:17;;;;;;;0.60;0.60;;;;;;;;;;5091768;28;20607;-64
2021/12/12 10:39:49;;;;;;;0.50;0.50;;;;;;;;;;5071884;28;20202;-64
2021/12/12 10:42:17;;;;;;;0.50;0.50;;;;;;;;;;5065832;28;20994;-65
2021/12/12 10:44:45;;;;;;;0.50;0.50;;;;;;;;;;5078410;28;20652;-65
2021/12/12 10:47:16;;;;;;;0.50;0.50;;;;;;;;;;5073383;28;20178;-64
2021/12/12 10:50:02;;;;;;;0.50;0.50;;;;;;;;;;5085172;28;20210;-65
2021/12/12 10:52:34;;;;;;;0.50;0.50;;;;;;;;;;5072599;28;20188;-64
2021/12/12 10:55:06;;;;;;;0.50;0.50;;;;;;;;;;5072805;28;20173;-64
2021/12/12 10:57:35;;;;;;;0.40;0.40;;;;;;;;;;5072715;28;20176;-65
2021/12/12 11:00:01;;;;;;;0.50;0.50;;;;;;;;;;5072877;28;20566;-65
2021/12/12 11:02:32;;;;;;;0.47;0.47;;;;;;;;;;5085846;28;20212;-65
2021/12/12 11:05:21;;;;;;;0.50;0.50;;;;;;;;;;5092582;28;20826;-65
2021/12/12 11:07:54;;;;;;;0.50;0.50;;;;;;;;;;5079257;28;20261;-65
2021/12/12 11:10:22;;;;;;;0.50;0.50;;;;;;;;;;5078650;28;20181;-64
2021/12/12 11:13:07;;;;;;;0.57;0.57;;;;;;;;;;5087360;28;20217;-63
2021/12/12 11:15:38;;;;;;;0.50;0.50;;;;;;;;;;5082365;28;20211;-64
2021/12/12 11:18:13;;;;;;;0.50;0.50;;;;;;;;;;5092228;28;20181;-65
2021/12/12 11:20:41;;;;;;;0.50;0.50;;;;;;;;;;5072830;28;20186;-65
2021/12/12 11:23:07;;;;;;;0.40;0.40;;;;;;;;;;5071437;28;20623;-64
2021/12/12 11:25:38;;;;;;;0.50;0.50;;;;;;;;;;5071667;28;20205;-63
2021/12/12 11:28:28;;;;;;;0.50;0.50;;;;;;;;;;5085393;28;20478;-65
2021/12/12 11:30:56;;;;;;;0.50;0.50;;;;;;;;;;5091761;28;20537;-64
2021/12/12 11:33:25;;;;;;;0.50;0.50;;;;;;;;;;5074089;28;20291;-64
2021/12/12 11:35:53;;;;;;;0.50;0.50;;;;;;;;;;5092129;28;20189;-65
2021/12/12 11:38:35;;;;;;;0.50;0.50;;;;;;;;;;5092305;28;20180;-65
2021/12/12 11:41:20;;;;;;;0.40;0.40;;;;;;;;;;5092093;28;20176;-65
2021/12/12 11:43:53;;;;;;;0.50;0.50;;;;;;;;;;5092296;28;20173;-65
2021/12/12 11:46:21;;;;;;;0.40;0.40;;;;;;;;;;5092057;28;20264;-65
2021/12/12 11:48:49;;;;;;;0.40;0.40;;;;;;;;;;5092146;28;20679;-65
2021/12/12 11:51:39;;;;;;;0.50;0.50;;;;;;;;;;5091740;28;20169;-65
2021/12/12 11:54:05;;;;;;;0.50;0.50;;;;;;;;;;5073828;28;20181;-65
2021/12/12 11:56:34;;;;;;;0.50;0.50;;;;;;;;;;5091921;28;20205;-65
2021/12/12 11:59:13;;;;;;;0.50;0.50;;;;;;;;;;5073812;28;20193;-65
2021/12/12 12:01:51;;;;;;;0.50;0.50;;;;;;;;;;5091562;28;20575;-65
2021/12/12 12:04:23;;;;;;;0.50;0.50;;;;;;;;;;5092221;28;20173;-64
2021/12/12 12:07:08;;;;;;;0.40;0.40;;;;;;;;;;5092001;28;20364;-65
2021/12/12 12:09:49;;;;;;;0.50;0.50;;;;;;;;;;5091886;28;20192;-65
2021/12/12 12:12:34;;;;;;;0.40;0.40;;;;;;;;;;5060979;28;20224;-65
2021/12/12 12:15:11;;;;;;;0.50;0.50;;;;;;;;;;5090818;28;20264;-65
2021/12/12 12:17:43;;;;;;;0.50;0.50;;;;;;;;;;5112107;28;20173;-65
2021/12/12 12:20:21;;;;;;;0.50;0.50;;;;;;;;;;5112050;28;20173;-65
2021/12/12 12:22:56;;;;;;;0.50;0.50;;;;;;;;;;5111937;28;20294;-65
2021/12/12 12:25:30;;;;;;;0.50;0.50;;;;;;;;;;5112171;28;20207;-64
2021/12/12 12:27:57;;;;;;;0.40;0.40;;;;;;;;;;5112058;28;20229;-65
2021/12/12 12:30:32;;;;;;;0.50;0.50;;;;;;;;;;5112301;28;20180;-64
2021/12/12 12:33:14;;;;;;;0.50;0.50;;;;;;;;;;5111854;28;20682;-64
2021/12/12 12:36:03;;;;;;;0.50;0.50;;;;;;;;;;5113947;28;20215;-65
2021/12/12 12:38:47;;;;;;;0.50;0.50;;;;;;;;;;5068836;28;20279;-65
2021/12/12 12:41:28;;;;;;;0.50;0.50;;;;;;;;;;5115482;28;20231;-64
2021/12/12 12:44:27;;;;;;;0.40;0.40;;;;;;;;;;5101046;28;20664;-64
2021/12/12 12:47:11;;;;;;;0.50;0.50;;;;;;;;;;5049077;28;20617;-64
2021/12/12 12:49:56;;;;;;;0.40;0.40;;;;;;;;;;5074253;28;20256;-64
2021/12/12 12:52:40;;;;;;;0.40;0.40;;;;;;;;;;5074724;28;20273;-64
2021/12/12 12:55:24;;;;;;;0.40;0.40;;;;;;;;;;5074693;28;20208;-64
2021/12/12 12:57:53;;;;;;;0.50;0.50;;;;;;;;;;5074980;28;20257;-64
2021/12/12 13:00:22;;;;;;;0.50;0.50;;;;;;;;;;5056545;28;20182;-63
2021/12/12 13:03:01;;;;;;;0.50;0.50;;;;;;;;;;5074418;28;20622;-64
2021/12/12 13:05:27;;;;;;;0.50;0.50;;;;;;;;;;5085863;28;20233;-65
2021/12/12 13:08:12;;;;;;;0.50;0.50;;;;;;;;;;5074674;28;20173;-65
2021/12/12 13:10:38;;;;;;;0.50;0.50;;;;;;;;;;5089635;28;20169;-64
2021/12/12 13:13:08;;;;;;;0.50;0.50;;;;;;;;;;5094895;28;20207;-65
2021/12/12 13:15:53;;;;;;;0.50;0.50;;;;;;;;;;5094731;28;20534;-64
2021/12/12 13:18:42;;;;;;;0.50;0.50;;;;;;;;;;5094686;28;20169;-64
2021/12/12 13:21:22;;;;;;;0.50;0.50;;;;;;;;;;5094517;28;20200;-64
2021/12/12 13:23:55;;;;;;;0.50;0.50;;;;;;;;;;5094790;28;20200;-64
2021/12/12 13:26:35;;;;;;;0.50;0.50;;;;;;;;;;5094712;28;20208;-64
2021/12/12 13:29:20;;;;;;;0.50;0.50;;;;;;;;;;5094892;28;20212;-65
2021/12/12 13:31:53;;;;;;;0.50;0.50;;;;;;;;;;5094231;28;20191;-64
2021/12/12 13:34:35;;;;;;;0.50;0.50;;;;;;;;;;5094993;28;20692;-65
2021/12/12 13:37:11;;;;;;;0.50;0.50;;;;;;;;;;5094484;28;20184;-65
2021/12/12 13:39:55;;;;;;;0.50;0.50;;;;;;;;;;5102128;28;20223;-64
2021/12/12 13:42:24;;;;;;;0.40;0.40;;;;;;;;;;5117204;22;20235;-63
2021/12/12 13:45:11;;;;;;;0.50;0.50;;;;;;;;;;5093940;28;20196;-64
2021/12/12 13:47:43;;;;;;;0.50;0.50;;;;;;;;;;5090190;28;20184;-63
2021/12/12 13:50:22;;;;;;;0.40;0.40;;;;;;;;;;5085332;28;20274;-64
2021/12/12 13:52:51;;;;;;;0.50;0.50;;;;;;;;;;5074598;28;20256;-65
2021/12/12 13:55:20;;;;;;;0.50;0.50;;;;;;;;;;5061942;28;20265;-65
2021/12/12 13:57:50;;;;;;;0.50;0.50;;;;;;;;;;5064206;28;20175;-65
2021/12/12 14:00:21;;;;;;;0.50;0.50;;;;;;;;;;5062262;28;20183;-66
2021/12/12 14:02:50;;;;;;;0.50;0.50;;;;;;;;;;5052493;28;20286;-65
2021/12/12 14:05:19;;;;;;;0.50;0.50;;;;;;;;;;5064077;28;20587;-65
2021/12/12 14:07:50;;;;;;;0.50;0.50;;;;;;;;;;5063591;28;20266;-65
2021/12/12 14:10:26;;;;;;;0.40;0.40;;;;;;;;;;5061989;28;20183;-65
2021/12/12 14:12:54;;;;;;;0.50;0.50;;;;;;;;;;5061899;28;20199;-65
2021/12/12 14:15:25;;;;;;;0.47;0.47;;;;;;;;;;5063207;28;20183;-66
2021/12/12 14:18:01;;;;;;;0.50;0.50;;;;;;;;;;5064061;28;20186;-65
2021/12/12 14:20:38;;;;;;;0.50;0.50;;;;;;;;;;5058573;28;20523;-66
2021/12/12 14:23:05;;;;;;;0.50;0.50;;;;;;;;;;5053132;28;20214;-65
2021/12/12 14:25:34;;;;;;;0.50;0.50;;;;;;;;;;5052987;28;20714;-65
2021/12/12 14:28:02;;;;;;;0.50;0.50;;;;;;;;;;5051874;28;20270;-65
2021/12/12 14:30:32;;;;;;;0.50;0.50;;;;;;;;;;5052744;28;20171;-65
2021/12/12 14:33:01;;;;;;;0.50;0.50;;;;;;;;;;5052901;28;20206;-66
2021/12/12 14:35:33;;;;;;;0.50;0.50;;;;;;;;;;5052988;28;20189;-65
2021/12/12 14:37:59;;;;;;;0.50;0.50;;;;;;;;;;5052987;28;20370;-65
2021/12/12 14:40:30;;;;;;;0.40;0.40;;;;;;;;;;5052696;28;20263;-65
2021/12/12 14:43:02;;;;;;;0.50;0.50;;;;;;;;;;5052569;28;20215;-64
2021/12/12 14:45:40;;;;;;;0.60;0.60;;;;;;;;;;5051320;28;20174;-65
2021/12/12 14:48:08;;;;;;;0.45;0.45;;;;;;;;;;5052672;28;20202;-67
2021/12/12 14:50:37;;;;;;;0.40;0.40;;;;;;;;;;5052329;28;20179;-65
2021/12/12 14:53:06;;;;;;;0.40;0.40;;;;;;;;;;5060392;28;20257;-64
2021/12/12 14:55:40;;;;;;;0.50;0.50;;;;;;;;;;5063134;28;20261;-63
2021/12/12 14:58:12;;;;;;;0.45;0.45;;;;;;;;;;5063039;28;20194;-66
2021/12/12 15:00:41;;;;;;;0.50;0.50;;;;;;;;;;5061283;28;20175;-64
2021/12/12 15:03:10;;;;;;;0.50;0.50;;;;;;;;;;5060876;28;20577;-65
2021/12/12 15:05:47;;;;;;;0.50;0.50;;;;;;;;;;5061301;28;20168;-65
2021/12/12 15:08:18;;;;;;;0.50;0.50;;;;;;;;;;5051269;28;20171;-64
2021/12/12 15:10:47;;;;;;;0.60;0.60;;;;;;;;;;5061169;28;20174;-65
2021/12/12 15:13:15;;;;;;;0.50;0.50;;;;;;;;;;5062777;28;20199;-65
2021/12/12 15:15:52;;;;;;;0.50;0.50;;;;;;;;;;5061566;28;20661;-64
2021/12/12 15:18:18;;;;;;;0.50;0.50;;;;;;;;;;5061374;28;20233;-65
2021/12/12 15:20:56;;;;;;;0.50;0.50;;;;;;;;;;5060981;28;20184;-65
2021/12/12 15:23:24;;;;;;;0.50;0.50;;;;;;;;;;5061936;28;20700;-63